Webcam Richtung Westen

Webcam27

Webcam Richtung Norden

Webcam36

Webcam Richtung Osten

Webcam09

Wetter(Würzburg):
091000Z AUTO 17003G07KT 39KM ////// 33/11 Q1019
		
Sun 9.08.2020, 10:00 UTC

Sichtweite bis zu 39 km
Wind aus 170° mit 03kt, in Böen bis zu 07kt

Temperatur: 33 °C
Taupunkt: 11 °C
QNH: 1019 hPa
                         Heute        Morgen
                         09.08        10.08
--------------------------------------------
Beginn der Dämmerung     03:25        03:27
Sonnenaufgang            04:02        04:03
Sonnenuntergang          18:50        18:48
Ende der Dämmerung       19:26        19:24

Alle Zeiten in UTC